Time;durP1;ratioP1;P1;durP2;ratioP2;P2;SDS_P1;SDS_P2;PMS_P1;PMS_P2;Temp;Humidity;BMP_temperature;BMP_pressure;BME280_temperature;BME280_humidity;BME280_pressure;Samples;Min_cycle;Max_cycle;Signal;HPM_P1;HPM_P2
2021/05/10 00:00:51;;;;;;;2.05;0.75;;;19.40;50.40;;;;;;5051326;28;20227;-71
2021/05/10 00:03:18;;;;;;;1.60;0.95;;;19.40;50.40;;;;;;5050815;28;20107;-70
2021/05/10 00:05:44;;;;;;;4.00;0.80;;;19.40;50.30;;;;;;5050811;28;20040;-72
2021/05/10 00:08:10;;;;;;;1.83;0.80;;;19.40;50.20;;;;;;5033223;28;20025;-71
2021/05/10 00:10:36;;;;;;;2.15;0.70;;;19.30;50.20;;;;;;5051982;28;20048;-70
2021/05/10 00:13:04;;;;;;;1.83;0.82;;;19.40;50.30;;;;;;5046135;28;20022;-70
2021/05/10 00:15:30;;;;;;;3.80;0.80;;;19.30;50.10;;;;;;5047096;28;20449;-70
2021/05/10 00:18:02;;;;;;;1.00;0.82;;;19.30;50.10;;;;;;5047952;28;20511;-71
2021/05/10 00:20:30;;;;;;;2.15;0.98;;;19.30;50.00;;;;;;5050053;28;20025;-71
2021/05/10 00:22:56;;;;;;;0.73;0.63;;;19.30;50.00;;;;;;5051445;28;20144;-71
2021/05/10 00:25:21;;;;;;;3.03;1.00;;;19.30;50.00;;;;;;5050244;28;20537;-71
2021/05/10 00:27:47;;;;;;;2.60;0.75;;;19.30;50.10;;;;;;5050682;28;20025;-71
2021/05/10 00:30:13;;;;;;;1.85;0.70;;;19.30;49.90;;;;;;5050647;28;20025;-71
2021/05/10 00:32:38;;;;;;;1.45;0.80;;;19.30;49.90;;;;;;5044748;28;20025;-71
2021/05/10 00:35:04;;;;;;;1.17;0.65;;;19.30;49.80;;;;;;5041084;28;20043;-71
2021/05/10 00:37:30;;;;;;;1.17;0.80;;;19.30;49.90;;;;;;5050241;28;20617;-71
2021/05/10 00:39:55;;;;;;;0.90;0.50;;;19.30;49.70;;;;;;5033188;28;20021;-71
2021/05/10 00:42:21;;;;;;;0.93;0.80;;;19.30;49.50;;;;;;5050646;28;20485;-71
2021/05/10 00:44:47;;;;;;;1.00;0.70;;;19.30;49.50;;;;;;5031641;28;20112;-71
2021/05/10 00:47:12;;;;;;;1.85;0.70;;;19.30;49.40;;;;;;5050342;28;20025;-71
2021/05/10 00:49:38;;;;;;;1.75;0.90;;;19.20;49.50;;;;;;5032066;28;20017;-71
2021/05/10 00:52:03;;;;;;;0.88;0.70;;;19.20;49.60;;;;;;5050919;28;20029;-71
2021/05/10 00:54:29;;;;;;;2.30;0.90;;;19.20;49.50;;;;;;5050798;28;20076;-72
2021/05/10 00:56:55;;;;;;;0.70;0.70;;;19.20;49.30;;;;;;5050404;28;20083;-71
2021/05/10 00:59:21;;;;;;;1.45;0.60;;;19.20;49.20;;;;;;5050402;28;20654;-71
2021/05/10 01:01:46;;;;;;;0.65;0.60;;;19.20;49.20;;;;;;5050700;28;20123;-71
2021/05/10 01:04:12;;;;;;;1.35;0.85;;;19.20;49.00;;;;;;5031878;28;20060;-71
2021/05/10 01:06:37;;;;;;;2.30;0.73;;;19.10;49.60;;;;;;5049655;28;20040;-71
2021/05/10 01:09:04;;;;;;;4.30;0.80;;;19.10;49.10;;;;;;5050483;28;20017;-71
2021/05/10 01:11:30;;;;;;;1.27;0.80;;;19.20;49.30;;;;;;5051065;28;20037;-72
2021/05/10 01:13:55;;;;;;;2.33;0.70;;;19.20;49.10;;;;;;5046125;28;20469;-71
2021/05/10 01:16:21;;;;;;;1.25;0.60;;;19.20;49.10;;;;;;5041262;28;20025;-71
2021/05/10 01:18:47;;;;;;;1.20;0.85;;;19.20;49.10;;;;;;5050240;28;20098;-71
2021/05/10 01:21:13;;;;;;;1.45;0.65;;;19.20;48.90;;;;;;5049966;28;20025;-71
2021/05/10 01:23:39;;;;;;;3.13;1.20;;;19.20;48.90;;;;;;5050648;28;20159;-71
2021/05/10 01:26:05;;;;;;;3.80;1.05;;;19.20;48.70;;;;;;5049145;28;20531;-71
2021/05/10 01:28:31;;;;;;;1.65;0.77;;;19.20;48.70;;;;;;5049900;28;20060;-72
2021/05/10 01:30:56;;;;;;;1.08;0.68;;;19.10;48.90;;;;;;5049762;28;20045;-71
2021/05/10 01:33:22;;;;;;;3.80;0.90;;;19.10;48.70;;;;;;5050342;28;20036;-71
2021/05/10 01:35:51;;;;;;;1.42;0.85;;;19.10;48.80;;;;;;5046300;28;20021;-71
2021/05/10 01:38:18;;;;;;;0.80;0.70;;;19.10;48.90;;;;;;5030289;28;20095;-71
2021/05/10 01:40:48;;;;;;;2.90;0.73;;;19.00;48.80;;;;;;5039638;28;20417;-71
2021/05/10 01:43:16;;;;;;;1.42;0.85;;;19.00;48.80;;;;;;5032042;28;20523;-71
2021/05/10 01:45:42;;;;;;;0.73;0.70;;;18.90;48.80;;;;;;5045119;28;20032;-71
2021/05/10 01:48:10;;;;;;;1.95;0.70;;;18.90;48.80;;;;;;5037977;28;20017;-71
2021/05/10 01:50:38;;;;;;;2.10;1.00;;;18.80;49.00;;;;;;5049251;28;20021;-71
2021/05/10 01:53:04;;;;;;;1.15;0.77;;;18.80;49.30;;;;;;5049920;28;20029;-71
2021/05/10 01:55:30;;;;;;;0.90;0.80;;;18.70;49.50;;;;;;5049185;28;20028;-71
2021/05/10 01:57:58;;;;;;;0.90;0.80;;;18.60;49.80;;;;;;5049407;28;20033;-71
2021/05/10 02:00:26;;;;;;;1.25;0.70;;;18.60;50.10;;;;;;5049875;28;20404;-71
2021/05/10 02:02:58;;;;;;;1.70;0.90;;;18.50;50.30;;;;;;5048900;28;20029;-71
2021/05/10 02:05:23;;;;;;;1.17;0.70;;;18.50;50.30;;;;;;5047307;28;20086;-72
2021/05/10 02:07:52;;;;;;;0.90;0.80;;;18.40;50.40;;;;;;5048867;28;20054;-71
2021/05/10 02:10:26;;;;;;;1.67;0.90;;;18.30;50.60;;;;;;5050067;28;20496;-71
2021/05/10 02:13:01;;;;;;;1.02;0.90;;;18.20;51.10;;;;;;5031756;28;20078;-71
2021/05/10 02:15:28;;;;;;;1.38;0.80;;;18.20;51.70;;;;;;5048361;28;20092;-71
2021/05/10 02:17:54;;;;;;;1.98;0.88;;;18.10;51.80;;;;;;5048648;28;20032;-71
2021/05/10 02:20:21;;;;;;;0.95;0.90;;;18.10;51.90;;;;;;5049983;28;20025;-71
2021/05/10 02:23:12;;;;;;;1.02;0.70;;;18.00;52.00;;;;;;5048828;28;20041;-71
2021/05/10 02:25:43;;;;;;;1.30;0.98;;;18.00;52.20;;;;;;5040843;28;20041;-71
2021/05/10 02:28:10;;;;;;;1.00;0.90;;;17.90;52.70;;;;;;5048766;28;20041;-71
2021/05/10 02:30:37;;;;;;;0.90;0.90;;;17.90;52.70;;;;;;5049071;28;20119;-71
2021/05/10 02:33:09;;;;;;;4.75;0.80;;;17.80;52.90;;;;;;5050186;28;20025;-71
2021/05/10 02:35:35;;;;;;;1.35;0.90;;;17.80;53.00;;;;;;5048726;28;20033;-71
2021/05/10 02:38:01;;;;;;;1.00;0.77;;;17.80;52.80;;;;;;5048755;28;20040;-71
2021/05/10 02:40:26;;;;;;;3.22;0.82;;;17.70;53.00;;;;;;5048814;28;20055;-71
2021/05/10 02:42:52;;;;;;;1.23;0.73;;;17.70;53.20;;;;;;5046625;28;20033;-71
2021/05/10 02:45:18;;;;;;;1.67;1.10;;;17.60;53.50;;;;;;5046191;28;20033;-71
2021/05/10 02:52:48;;;;;;;1.95;1.15;;;17.40;54.20;;;;;;5037535;28;20033;-69
2021/05/10 02:55:15;;;;;;;2.72;0.93;;;17.30;54.20;;;;;;5030045;28;20017;-69
2021/05/10 02:57:40;;;;;;;1.15;1.05;;;17.10;54.10;;;;;;5040014;28;20040;-69
2021/05/10 03:00:08;;;;;;;1.50;0.95;;;17.00;54.30;;;;;;5028949;28;20465;-69
2021/05/10 03:02:34;;;;;;;2.75;1.17;;;16.80;54.50;;;;;;5051331;28;20029;-69
2021/05/10 03:05:00;;;;;;;1.23;1.10;;;16.70;54.50;;;;;;5052193;28;20120;-69
2021/05/10 03:07:25;;;;;;;1.60;0.90;;;16.50;54.90;;;;;;5051812;28;20032;-69
2021/05/10 03:09:51;;;;;;;1.98;1.00;;;16.50;55.30;;;;;;5051861;28;20047;-68
2021/05/10 03:12:16;;;;;;;1.88;0.82;;;16.40;55.60;;;;;;5053140;28;20027;-69
2021/05/10 03:14:42;;;;;;;2.13;0.93;;;16.40;55.70;;;;;;5049815;28;20443;-70
2021/05/10 03:17:08;;;;;;;2.20;1.10;;;16.40;55.90;;;;;;5052108;28;20514;-68
2021/05/10 03:19:33;;;;;;;3.03;1.30;;;16.30;56.20;;;;;;5044163;28;20026;-72
2021/05/10 03:21:59;;;;;;;1.00;0.90;;;16.30;56.30;;;;;;5042315;28;20025;-71
2021/05/10 03:24:25;;;;;;;1.17;1.05;;;16.20;56.40;;;;;;5053290;28;20029;-69
2021/05/10 03:26:51;;;;;;;1.50;1.02;;;16.10;56.40;;;;;;5049497;28;20028;-70
2021/05/10 03:29:16;;;;;;;1.50;0.90;;;16.10;56.40;;;;;;5043056;28;20040;-68
2021/05/10 03:31:42;;;;;;;4.15;0.80;;;16.10;56.30;;;;;;5052279;28;20104;-69
2021/05/10 03:34:08;;;;;;;2.75;0.90;;;16.00;56.30;;;;;;5051512;28;20107;-68
2021/05/10 03:36:34;;;;;;;3.25;1.10;;;15.90;56.50;;;;;;5052103;28;20108;-68
2021/05/10 03:39:01;;;;;;;1.98;1.08;;;15.90;56.60;;;;;;5051721;28;20496;-68
2021/05/10 03:41:27;;;;;;;6.78;1.10;;;15.80;56.80;;;;;;5040631;28;20106;-69
2021/05/10 03:43:53;;;;;;;1.52;1.05;;;15.70;57.00;;;;;;5044536;28;20049;-68
2021/05/10 03:46:19;;;;;;;2.10;1.00;;;15.70;57.20;;;;;;5050806;28;20033;-70
2021/05/10 03:48:44;;;;;;;2.47;1.20;;;15.60;57.40;;;;;;5049828;28;20021;-69
2021/05/10 03:51:10;;;;;;;3.40;1.10;;;15.60;57.30;;;;;;5050715;28;20504;-70
2021/05/10 03:53:36;;;;;;;2.47;0.95;;;15.60;57.50;;;;;;5050927;28;20687;-70
2021/05/10 03:56:01;;;;;;;2.33;1.27;;;15.50;57.40;;;;;;5047495;28;20029;-71
2021/05/10 03:58:27;;;;;;;2.42;1.00;;;15.40;57.50;;;;;;5050793;28;20078;-70
2021/05/10 04:00:53;;;;;;;3.80;1.20;;;15.30;57.60;;;;;;5050710;28;20041;-70
2021/05/10 04:03:20;;;;;;;2.45;1.20;;;15.30;58.10;;;;;;5048938;28;20021;-70
2021/05/10 04:16:14;;;;;;;3.63;1.17;;;15.40;59.00;;;;;;5040284;28;20102;-70
2021/05/10 04:18:40;;;;;;;1.88;1.30;;;15.40;58.90;;;;;;5048542;28;20469;-70
2021/05/10 04:21:05;;;;;;;1.85;1.30;;;15.40;58.90;;;;;;5050302;28;20029;-70
2021/05/10 04:23:31;;;;;;;3.08;1.20;;;15.50;59.00;;;;;;5049637;28;20041;-70
2021/05/10 04:25:57;;;;;;;2.05;1.10;;;15.40;59.00;;;;;;5049534;28;20029;-69
2021/05/10 04:28:24;;;;;;;1.60;1.50;;;15.40;59.20;;;;;;5046521;28;20025;-69
2021/05/10 04:30:51;;;;;;;2.28;1.35;;;15.40;59.30;;;;;;5054327;28;20048;-70
2021/05/10 04:33:33;;;;;;;2.05;1.20;;;15.40;59.30;;;;;;5049288;28;20017;-69
2021/05/10 04:36:00;;;;;;;4.78;1.20;;;15.30;59.50;;;;;;5049180;28;20029;-69
2021/05/10 04:38:27;;;;;;;2.08;1.13;;;15.30;59.30;;;;;;5045410;28;20040;-69
2021/05/10 04:40:54;;;;;;;2.97;1.20;;;15.30;59.40;;;;;;5047693;28;20021;-70
2021/05/10 04:43:20;;;;;;;2.90;1.17;;;15.30;59.40;;;;;;5048124;28;20104;-70
2021/05/10 04:45:46;;;;;;;1.25;1.15;;;15.20;59.40;;;;;;5042747;28;20529;-69
2021/05/10 04:48:11;;;;;;;2.60;1.27;;;15.20;59.40;;;;;;5053169;28;20070;-70
2021/05/10 04:50:37;;;;;;;9.82;1.30;;;15.20;59.50;;;;;;5042362;28;575567;-70
2021/05/10 04:53:03;;;;;;;1.48;1.38;;;15.20;59.80;;;;;;5053383;28;20455;-70
2021/05/10 04:55:29;;;;;;;5.38;1.40;;;15.20;60.30;;;;;;5049792;28;20032;-70
2021/05/10 04:57:54;;;;;;;2.88;1.20;;;15.20;60.60;;;;;;5038262;28;20026;-69
2021/05/10 05:00:21;;;;;;;2.45;1.33;;;15.30;60.70;;;;;;5042163;28;20100;-69
2021/05/10 05:02:46;;;;;;;1.85;1.25;;;15.40;61.10;;;;;;5050380;28;20025;-70
2021/05/10 05:05:13;;;;;;;2.95;1.27;;;15.40;61.20;;;;;;5053130;28;20052;-70
2021/05/10 05:07:39;;;;;;;4.97;1.75;;;15.50;61.30;;;;;;5050095;28;20128;-70
2021/05/10 05:10:06;;;;;;;5.82;1.70;;;15.50;61.20;;;;;;5045847;28;20020;-70
2021/05/10 05:12:32;;;;;;;2.50;1.10;;;15.60;61.20;;;;;;5049802;28;20433;-70
2021/05/10 05:14:58;;;;;;;3.30;1.48;;;15.60;61.00;;;;;;5043405;28;20032;-70
2021/05/10 05:17:23;;;;;;;2.08;1.40;;;15.60;61.10;;;;;;5047770;28;20032;-70
2021/05/10 05:19:49;;;;;;;3.53;1.50;;;15.70;61.30;;;;;;5050005;28;20028;-70
2021/05/10 05:22:14;;;;;;;5.95;1.77;;;15.70;61.30;;;;;;5048355;28;20025;-70
2021/05/10 05:24:40;;;;;;;6.50;1.52;;;15.80;61.40;;;;;;5049536;28;20037;-70
2021/05/10 05:27:06;;;;;;;4.18;1.70;;;15.80;61.40;;;;;;5053472;28;20084;-69
2021/05/10 05:29:31;;;;;;;2.50;1.40;;;15.90;61.50;;;;;;5055418;28;20028;-70
2021/05/10 05:31:59;;;;;;;4.72;1.50;;;15.90;61.60;;;;;;5050252;28;20035;-69
2021/05/10 05:34:24;;;;;;;5.85;1.30;;;15.90;61.90;;;;;;5049367;28;20032;-70
2021/05/10 05:36:50;;;;;;;2.75;1.60;;;15.90;61.90;;;;;;5047242;28;20025;-70
2021/05/10 05:39:16;;;;;;;4.43;1.60;;;15.90;62.00;;;;;;5050410;28;20473;-71
2021/05/10 05:41:41;;;;;;;3.42;1.52;;;15.90;62.20;;;;;;5050220;28;20377;-70
2021/05/10 05:44:07;;;;;;;4.57;1.55;;;16.00;62.30;;;;;;5034093;28;20032;-70
2021/05/10 05:46:43;;;;;;;7.40;1.80;;;16.00;62.70;;;;;;5043827;28;20029;-70
2021/05/10 05:49:09;;;;;;;5.20;1.50;;;16.00;62.90;;;;;;5049348;28;20103;-70
2021/05/10 05:51:35;;;;;;;3.45;1.50;;;16.00;63.20;;;;;;5044971;28;20061;-71
2021/05/10 05:54:01;;;;;;;5.25;1.65;;;16.00;63.60;;;;;;5048887;28;20037;-71
2021/05/10 05:56:27;;;;;;;2.45;1.30;;;16.10;64.00;;;;;;5049308;28;20031;-71
2021/05/10 05:58:53;;;;;;;2.45;1.60;;;16.20;64.10;;;;;;5032894;28;20025;-70
2021/05/10 06:01:20;;;;;;;4.28;1.88;;;16.20;64.00;;;;;;5044776;28;20025;-71
2021/05/10 06:03:46;;;;;;;2.50;1.33;;;16.30;63.90;;;;;;5040069;28;20071;-70
2021/05/10 06:06:11;;;;;;;1.58;1.30;;;16.40;63.80;;;;;;5035961;28;20412;-71
2021/05/10 06:08:38;;;;;;;2.30;1.40;;;16.60;63.60;;;;;;5042531;28;20492;-70
2021/05/10 06:11:05;;;;;;;3.35;1.50;;;16.70;63.30;;;;;;5047587;28;20032;-70
2021/05/10 06:13:30;;;;;;;2.58;1.63;;;16.70;63.20;;;;;;5048496;28;20025;-70
2021/05/10 06:15:56;;;;;;;2.17;1.60;;;16.90;63.30;;;;;;5045579;28;20028;-70
2021/05/10 06:18:22;;;;;;;7.75;1.75;;;16.90;63.30;;;;;;5040821;28;20088;-70
2021/05/10 06:20:47;;;;;;;3.78;1.73;;;17.10;63.40;;;;;;5043746;28;20039;-70
2021/05/10 06:23:13;;;;;;;3.88;1.40;;;17.10;63.40;;;;;;5044242;28;20480;-69
2021/05/10 06:25:39;;;;;;;1.40;0.98;;;17.20;63.40;;;;;;5042677;28;20037;-70
2021/05/10 06:28:04;;;;;;;3.20;1.40;;;17.40;63.30;;;;;;5043104;28;20056;-70
2021/05/10 06:30:30;;;;;;;2.80;1.48;;;17.50;63.00;;;;;;5046609;28;20051;-70
2021/05/10 06:32:56;;;;;;;4.10;1.67;;;17.70;63.00;;;;;;5047539;28;20021;-70
2021/05/10 06:35:22;;;;;;;2.20;1.13;;;17.90;63.00;;;;;;5045715;28;20033;-70
2021/05/10 06:37:47;;;;;;;1.40;1.30;;;18.10;63.10;;;;;;5050193;28;20481;-70
2021/05/10 06:40:13;;;;;;;7.28;1.20;;;18.30;62.80;;;;;;5051566;28;20025;-70
2021/05/10 06:42:39;;;;;;;1.67;1.15;;;18.60;62.10;;;;;;5050551;28;20036;-70
2021/05/10 06:45:06;;;;;;;2.25;1.02;;;18.90;61.80;;;;;;5050979;28;20032;-70
2021/05/10 06:47:32;;;;;;;2.58;1.30;;;19.20;60.90;;;;;;5048885;28;20036;-71
2021/05/10 06:49:58;;;;;;;4.43;1.40;;;19.40;60.40;;;;;;5049231;28;20096;-71
2021/05/10 06:52:24;;;;;;;3.53;1.13;;;19.60;60.20;;;;;;5046847;28;20091;-71
2021/05/10 06:54:49;;;;;;;2.47;1.40;;;19.70;59.80;;;;;;5048691;28;20037;-71
2021/05/10 06:57:15;;;;;;;4.90;1.25;;;20.10;59.60;;;;;;5047590;28;20055;-71
2021/05/10 06:59:42;;;;;;;2.58;1.10;;;20.40;58.90;;;;;;5046804;28;20033;-71
2021/05/10 07:02:07;;;;;;;2.30;1.08;;;20.60;58.50;;;;;;5045604;28;20059;-71
2021/05/10 07:04:33;;;;;;;4.10;1.08;;;21.00;57.70;;;;;;5049378;28;20461;-71
2021/05/10 07:06:58;;;;;;;2.65;1.00;;;21.30;57.30;;;;;;5046757;28;20425;-71
2021/05/10 07:09:24;;;;;;;2.28;1.00;;;21.70;57.10;;;;;;5047695;28;20049;-71
2021/05/10 07:11:50;;;;;;;1.85;0.85;;;21.90;56.70;;;;;;5048657;28;20037;-71
2021/05/10 07:14:15;;;;;;;4.68;2.10;;;22.00;55.40;;;;;;5044756;28;20085;-71
2021/05/10 07:16:41;;;;;;;4.70;1.15;;;22.10;55.00;;;;;;5049119;28;20037;-71
2021/05/10 07:19:07;;;;;;;2.05;1.08;;;22.20;53.90;;;;;;5047893;28;20438;-71
2021/05/10 07:21:32;;;;;;;7.45;1.30;;;22.30;53.60;;;;;;5044063;28;20063;-71
2021/05/10 07:23:58;;;;;;;11.70;1.45;;;22.50;53.20;;;;;;5047144;28;20025;-71
2021/05/10 07:26:24;;;;;;;6.13;1.30;;;22.60;52.70;;;;;;5047178;28;20025;-71
2021/05/10 07:28:49;;;;;;;9.45;1.13;;;22.90;52.10;;;;;;5047376;28;20060;-71
2021/05/10 07:31:15;;;;;;;4.70;1.00;;;23.00;51.20;;;;;;5046508;28;20028;-71
2021/05/10 07:33:41;;;;;;;1.90;1.00;;;23.10;51.00;;;;;;5047387;28;20103;-70
2021/05/10 07:36:07;;;;;;;5.75;1.20;;;23.20;50.60;;;;;;5047541;28;20143;-71
2021/05/10 07:38:33;;;;;;;1.73;1.00;;;23.30;50.50;;;;;;5045945;28;20120;-70
2021/05/10 07:40:58;;;;;;;5.65;0.98;;;23.30;50.70;;;;;;5049263;28;21507;-70
2021/05/10 07:43:24;;;;;;;3.08;1.10;;;23.20;50.50;;;;;;5051386;28;20017;-70
2021/05/10 07:45:49;;;;;;;4.32;1.00;;;23.20;50.40;;;;;;5046538;28;20492;-71
2021/05/10 07:48:15;;;;;;;3.95;1.30;;;23.20;50.90;;;;;;5043275;28;20025;-71
2021/05/10 07:50:41;;;;;;;3.55;1.00;;;23.30;50.30;;;;;;5045207;28;20413;-71
2021/05/10 07:53:06;;;;;;;6.07;5.45;;;23.30;50.00;;;;;;5046636;28;20033;-71
2021/05/10 07:55:34;;;;;;;6.85;1.40;;;23.30;50.30;;;;;;5049109;28;20048;-71
2021/05/10 07:57:59;;;;;;;1.42;0.93;;;23.40;50.10;;;;;;5045857;28;20017;-71
2021/05/10 08:00:34;;;;;;;5.93;2.70;;;23.60;50.10;;;;;;5046066;28;20107;-72
2021/05/10 08:03:07;;;;;;;4.18;2.05;;;24.30;49.40;;;;;;5050029;28;20112;-72
2021/05/10 08:05:36;;;;;;;3.33;2.72;;;24.80;48.70;;;;;;5037514;28;20695;-72
2021/05/10 08:08:02;;;;;;;2.88;1.70;;;24.70;49.00;;;;;;5049907;28;20048;-71
2021/05/10 08:10:28;;;;;;;4.68;1.63;;;25.10;48.60;;;;;;5057521;28;20466;-72
2021/05/10 08:12:53;;;;;;;3.90;1.67;;;26.20;47.20;;;;;;5048902;28;20044;-72
2021/05/10 08:15:19;;;;;;;4.18;1.00;;;27.10;45.90;;;;;;5047394;28;20065;-72
2021/05/10 08:17:45;;;;;;;7.18;2.10;;;28.00;44.70;;;;;;5051557;28;20029;-74
2021/05/10 08:20:11;;;;;;;4.10;1.30;;;28.70;43.70;;;;;;5050865;28;20017;-74
2021/05/10 08:22:36;;;;;;;4.72;1.50;;;29.40;42.40;;;;;;5049794;28;20021;-74
2021/05/10 08:25:03;;;;;;;1.80;0.70;;;29.90;41.80;;;;;;5049801;28;20471;-72
2021/05/10 08:27:29;;;;;;;4.70;1.20;;;30.10;41.60;;;;;;5051125;28;20100;-72
2021/05/10 08:29:55;;;;;;;11.52;1.33;;;30.60;40.70;;;;;;5040083;28;20445;-74
2021/05/10 08:32:20;;;;;;;1.48;0.77;;;30.80;40.50;;;;;;5049227;28;20082;-72
2021/05/10 08:34:46;;;;;;;7.80;1.75;;;30.80;40.20;;;;;;5051477;28;20080;-73
2021/05/10 08:37:13;;;;;;;5.35;1.10;;;30.50;40.20;;;;;;5050815;28;20036;-73
2021/05/10 08:39:38;;;;;;;8.75;2.03;;;30.50;39.70;;;;;;5048271;28;20052;-72
2021/05/10 08:42:04;;;;;;;3.55;1.20;;;30.40;39.70;;;;;;5047465;28;20485;-73
2021/05/10 08:44:29;;;;;;;8.52;1.35;;;30.30;40.00;;;;;;5043050;28;20029;-73
2021/05/10 08:46:55;;;;;;;3.83;0.98;;;29.50;41.00;;;;;;5129853;22;20453;-71
2021/05/10 08:49:21;;;;;;;3.00;1.20;;;29.10;41.60;;;;;;5068359;28;20025;-71
2021/05/10 08:51:48;;;;;;;3.03;0.98;;;28.50;42.00;;;;;;5068689;28;20020;-70
2021/05/10 08:54:32;;;;;;;3.08;1.83;;;30.20;40.20;;;;;;5051249;28;20498;-72
2021/05/10 08:57:00;;;;;;;2.70;0.95;;;31.40;39.20;;;;;;5052351;28;20043;-68
2021/05/10 08:59:26;;;;;;;1.95;0.70;;;32.40;38.20;;;;;;5068571;28;20024;-69
2021/05/10 09:01:58;;;;;;;2.83;1.20;;;33.20;37.70;;;;;;5061870;28;20017;-69
2021/05/10 09:04:33;;;;;;;4.28;0.88;;;33.90;36.60;;;;;;5068885;28;20036;-70
2021/05/10 09:07:22;;;;;;;3.00;1.10;;;33.90;35.60;;;;;;5045805;28;20028;-67
2021/05/10 09:10:00;;;;;;;2.88;1.13;;;33.80;35.70;;;;;;5070685;28;20040;-71
2021/05/10 09:12:47;;;;;;;1.85;1.00;;;33.80;35.50;;;;;;5069789;28;20550;-68
2021/05/10 09:15:34;;;;;;;5.35;0.85;;;33.70;35.60;;;;;;5044804;28;20028;-69
2021/05/10 09:18:02;;;;;;;2.28;0.90;;;33.70;36.30;;;;;;5072188;28;20021;-70
2021/05/10 09:20:45;;;;;;;2.85;1.00;;;33.80;36.40;;;;;;5070404;28;20020;-69
2021/05/10 09:23:13;;;;;;;2.90;0.88;;;34.00;37.00;;;;;;5058477;28;20024;-68
2021/05/10 09:25:44;;;;;;;2.42;1.02;;;34.20;36.50;;;;;;5069919;28;20055;-69
2021/05/10 09:28:11;;;;;;;;;;;34.50;36.00;;;;;;5069650;28;20032;-70
2021/05/10 09:30:37;;;;;;;4.90;0.90;;;34.40;37.80;;;;;;5067691;28;19915;-68
2021/05/10 09:33:03;;;;;;;13.63;6.55;;;34.00;37.10;;;;;;5068905;28;20068;-68
2021/05/10 09:35:31;;;;;;;2.83;1.00;;;33.90;36.80;;;;;;5051860;28;20024;-68
2021/05/10 09:38:01;;;;;;;2.72;1.10;;;34.00;36.60;;;;;;5064277;28;20044;-69
2021/05/10 09:40:30;;;;;;;5.90;1.63;;;33.70;36.60;;;;;;5052177;28;20492;-70
2021/05/10 09:42:58;;;;;;;4.05;1.55;;;33.30;36.40;;;;;;5067148;28;20035;-69
2021/05/10 09:45:43;;;;;;;4.40;1.00;;;32.80;36.70;;;;;;5064058;28;20537;-69
2021/05/10 09:48:18;;;;;;;4.03;0.88;;;32.40;37.00;;;;;;5067818;28;20085;-70
2021/05/10 09:50:47;;;;;;;4.55;0.90;;;31.90;37.10;;;;;;5069299;28;20499;-69
2021/05/10 09:53:17;;;;;;;7.60;1.17;;;31.40;37.00;;;;;;5051085;28;20123;-69
2021/05/10 09:55:49;;;;;;;14.23;1.27;;;30.90;37.60;;;;;;5068155;28;20480;-69
2021/05/10 09:58:17;;;;;;;6.72;1.00;;;30.50;37.70;;;;;;5045815;28;20078;-68
2021/05/10 10:00:43;;;;;;;3.58;0.95;;;30.30;38.40;;;;;;5069421;28;20024;-69
2021/05/10 10:03:32;;;;;;;3.35;1.05;;;30.00;39.00;;;;;;5070049;28;20028;-69
2021/05/10 10:06:01;;;;;;;4.35;1.33;;;30.20;39.00;;;;;;5067983;28;20036;-67
2021/05/10 10:08:27;;;;;;;3.50;0.70;;;30.00;39.20;;;;;;5068345;28;20032;-69
2021/05/10 10:10:54;;;;;;;3.92;1.00;;;29.50;39.20;;;;;;5056200;28;20024;-68
2021/05/10 10:13:20;;;;;;;3.38;1.00;;;29.00;39.30;;;;;;5069692;28;20028;-66
2021/05/10 10:15:47;;;;;;;3.38;1.25;;;28.70;39.30;;;;;;5067067;28;20121;-69
2021/05/10 10:18:17;;;;;;;2.38;1.00;;;28.50;40.10;;;;;;5067681;28;20112;-68
2021/05/10 10:20:45;;;;;;;3.75;1.10;;;28.50;40.40;;;;;;5066862;28;20024;-69
2021/05/10 10:23:13;;;;;;;2.15;0.98;;;28.30;40.80;;;;;;5067319;28;20030;-66
2021/05/10 10:25:39;;;;;;;2.72;1.30;;;28.30;42.00;;;;;;5059196;28;20052;-67
2021/05/10 10:28:06;;;;;;;3.13;1.00;;;28.30;42.20;;;;;;5066835;28;20108;-67
2021/05/10 10:30:36;;;;;;;2.55;0.90;;;28.30;41.80;;;;;;5069099;28;20378;-67
2021/05/10 10:33:10;;;;;;;3.08;0.88;;;28.20;41.50;;;;;;5062367;28;20035;-68
2021/05/10 10:35:41;;;;;;;2.53;0.80;;;28.10;41.30;;;;;;5068450;28;20034;-68
2021/05/10 10:38:06;;;;;;;2.75;0.73;;;27.90;41.30;;;;;;5068783;28;20059;-68
2021/05/10 10:40:32;;;;;;;4.13;0.98;;;27.80;42.60;;;;;;5069308;28;20060;-67
2021/05/10 10:43:29;;;;;;;2.35;0.95;;;27.80;42.20;;;;;;5049839;28;20028;-67
2021/05/10 10:46:23;;;;;;;1.33;0.80;;;27.70;42.00;;;;;;5059482;28;20098;-68
2021/05/10 10:48:50;;;;;;;3.90;0.90;;;27.90;42.60;;;;;;5069614;28;20045;-66
2021/05/10 10:51:17;;;;;;;2.35;0.63;;;28.00;42.30;;;;;;5069017;28;20021;-68
2021/05/10 10:53:52;;;;;;;1.17;0.60;;;28.10;42.10;;;;;;5069827;28;20056;-67
2021/05/10 10:56:38;;;;;;;2.40;0.80;;;28.20;41.70;;;;;;5051275;28;20025;-67
2021/05/10 10:59:22;;;;;;;1.92;0.60;;;28.10;41.80;;;;;;5050712;28;20107;-67
2021/05/10 11:01:48;;;;;;;1.35;0.68;;;28.00;41.60;;;;;;5069362;28;20122;-68
2021/05/10 11:04:29;;;;;;;1.05;0.70;;;27.80;41.30;;;;;;5069120;28;20056;-67
2021/05/10 11:06:55;;;;;;;3.93;0.73;;;27.60;41.30;;;;;;5068817;28;20033;-68
2021/05/10 11:09:46;;;;;;;2.17;0.80;;;27.30;41.30;;;;;;5049567;28;20041;-69
2021/05/10 11:12:50;;;;;;;2.55;0.73;;;27.00;41.70;;;;;;5058344;28;20040;-68
2021/05/10 11:15:35;;;;;;;1.83;0.47;;;27.00;42.10;;;;;;5051209;28;20032;-69
2021/05/10 11:18:03;;;;;;;2.65;0.88;;;26.70;42.10;;;;;;5067716;28;20090;-68
2021/05/10 11:20:45;;;;;;;1.40;0.70;;;26.70;42.50;;;;;;5055978;28;20013;-68
2021/05/10 11:23:23;;;;;;;1.45;0.60;;;26.50;42.40;;;;;;5070576;28;20028;-69
2021/05/10 11:25:53;;;;;;;0.93;0.55;;;26.40;42.60;;;;;;5072062;28;20024;-69
2021/05/10 11:28:24;;;;;;;1.80;0.70;;;26.30;42.50;;;;;;5072124;28;20047;-68
2021/05/10 11:30:57;;;;;;;1.77;0.90;;;26.00;42.60;;;;;;5071920;28;20031;-68
2021/05/10 11:33:53;;;;;;;23.45;16.65;;;25.70;42.50;;;;;;5072691;28;20407;-67
2021/05/10 11:36:28;;;;;;;0.70;0.70;;;25.40;43.00;;;;;;5072416;28;20029;-68
2021/05/10 11:38:58;;;;;;;2.83;0.55;;;25.20;43.60;;;;;;5054483;28;20491;-68
2021/05/10 11:41:27;;;;;;;3.47;0.50;;;25.00;43.40;;;;;;5055156;28;20056;-68
2021/05/10 11:43:57;;;;;;;2.58;0.52;;;24.80;43.70;;;;;;5071190;28;20020;-68
2021/05/10 11:46:50;;;;;;;0.70;0.45;;;24.60;43.80;;;;;;5072984;28;20112;-67
2021/05/10 11:49:28;;;;;;;0.63;0.40;;;24.40;44.00;;;;;;5065375;28;20031;-68
2021/05/10 11:51:56;;;;;;;2.75;0.30;;;24.20;44.50;;;;;;5070530;28;20020;-71
2021/05/10 11:54:23;;;;;;;1.45;0.30;;;24.10;44.80;;;;;;5071483;28;20024;-70
2021/05/10 11:56:50;;;;;;;2.50;0.55;;;24.00;45.10;;;;;;5070151;28;20028;-70
2021/05/10 12:01:53;;;;;;;3.10;0.38;;;23.80;45.60;;;;;;5071999;28;20040;-69
2021/05/10 12:04:24;;;;;;;1.20;0.30;;;23.80;45.80;;;;;;5071660;28;20024;-67
2021/05/10 12:06:51;;;;;;;0.40;0.30;;;23.70;45.30;;;;;;5070069;28;20032;-68
2021/05/10 12:09:37;;;;;;;0.57;0.20;;;23.50;45.20;;;;;;5069143;28;20349;-67
2021/05/10 12:12:28;;;;;;;5.25;0.35;;;23.40;45.20;;;;;;5071054;28;20040;-68
2021/05/10 12:14:56;;;;;;;2.17;0.35;;;23.10;45.10;;;;;;5070760;28;20380;-68
2021/05/10 12:17:24;;;;;;;0.30;0.30;;;22.90;45.50;;;;;;5065172;28;20473;-68
2021/05/10 12:19:58;;;;;;;1.60;0.20;;;22.80;45.60;;;;;;5072519;28;20020;-67
2021/05/10 12:22:29;;;;;;;3.30;0.20;;;22.70;45.60;;;;;;5071532;28;20027;-68
2021/05/10 12:25:02;;;;;;;0.20;0.20;;;22.60;45.90;;;;;;5070821;28;20048;-68
2021/05/10 12:27:35;;;;;;;0.10;0.10;;;22.60;46.00;;;;;;5071245;28;20496;-67
2021/05/10 12:30:02;;;;;;;2.20;0.47;;;22.50;46.00;;;;;;5065065;28;20476;-67
2021/05/10 12:32:28;;;;;;;0.30;0.30;;;22.50;46.30;;;;;;5065699;28;20553;-67
2021/05/10 12:34:54;;;;;;;1.38;0.20;;;22.50;46.30;;;;;;5067737;28;20029;-68
2021/05/10 12:37:19;;;;;;;1.23;0.20;;;22.40;46.40;;;;;;5072138;28;20025;-67
2021/05/10 12:39:46;;;;;;;0.20;0.20;;;22.40;46.70;;;;;;5071850;28;20020;-67
2021/05/10 12:42:12;;;;;;;0.35;0.28;;;22.40;47.80;;;;;;5071536;28;20101;-68
2021/05/10 12:44:37;;;;;;;0.22;0.20;;;22.40;47.20;;;;;;5069476;28;20739;-67
2021/05/10 12:47:03;;;;;;;2.10;0.40;;;22.30;47.00;;;;;;5078789;28;20063;-67
2021/05/10 12:49:28;;;;;;;0.20;0.20;;;22.30;47.30;;;;;;5068648;28;20032;-67
2021/05/10 12:51:55;;;;;;;0.20;0.20;;;22.30;47.50;;;;;;5072727;28;20503;-67
2021/05/10 12:54:21;;;;;;;1.15;0.20;;;22.30;47.50;;;;;;5052712;28;20123;-67
2021/05/10 12:56:46;;;;;;;0.30;0.20;;;22.30;47.40;;;;;;5070622;28;20104;-67
2021/05/10 12:59:12;;;;;;;0.73;0.20;;;22.20;47.10;;;;;;5071351;28;20033;-67
2021/05/10 13:01:38;;;;;;;0.20;0.10;;;22.10;47.40;;;;;;5054010;28;20400;-67
2021/05/10 13:04:07;;;;;;;0.52;0.20;;;22.00;47.50;;;;;;5050565;28;20077;-70
2021/05/10 13:06:33;;;;;;;0.20;0.20;;;22.10;47.60;;;;;;5053196;28;20472;-69
2021/05/10 13:09:00;;;;;;;0.10;0.10;;;22.10;47.70;;;;;;5070304;28;20111;-69
2021/05/10 13:11:48;;;;;;;0.17;0.10;;;22.10;47.30;;;;;;5070538;28;20021;-68